Time;durP1;ratioP1;P1;durP2;ratioP2;P2;SDS_P1;SDS_P2;PMS_P1;PMS_P2;Temp;Humidity;BMP_temperature;BMP_pressure;BME280_temperature;BME280_humidity;BME280_pressure;Samples;Min_cycle;Max_cycle;Signal;HPM_P1;HPM_P2
2023/05/12 00:02:24;;;;;;;;;;;13.50;99.90;;;;;;5074105;28;19930;-88
2023/05/12 00:04:50;;;;;;;;;;;13.40;99.90;;;;;;5072894;28;20431;-88
2023/05/12 00:07:15;;;;;;;;;;;13.40;99.90;;;;;;5074109;28;20395;-89
2023/05/12 00:09:41;;;;;;;;;;;13.40;99.90;;;;;;5073168;28;19909;-88
2023/05/12 00:12:07;;;;;;;;;;;13.40;99.90;;;;;;5072963;28;19954;-88
2023/05/12 00:14:36;;;;;;;;;;;13.40;99.90;;;;;;5073615;28;19995;-87
2023/05/12 00:17:02;;;;;;;;;;;13.30;99.90;;;;;;5073007;28;19905;-88
2023/05/12 00:19:28;;;;;;;;;;;13.30;99.90;;;;;;5072917;28;19911;-87
2023/05/12 00:21:53;;;;;;;;;;;13.30;99.90;;;;;;5072840;28;19905;-88
2023/05/12 00:24:19;;;;;;;;;;;13.30;99.90;;;;;;5071180;28;19923;-88
2023/05/12 00:26:44;;;;;;;;;;;13.20;99.90;;;;;;5072740;28;19993;-87
2023/05/12 00:29:10;;;;;;;;;;;13.20;99.90;;;;;;5073702;28;19904;-87
2023/05/12 00:31:35;;;;;;;;;;;13.20;99.90;;;;;;5072784;28;19905;-87
2023/05/12 00:34:01;;;;;;;;;;;13.20;99.90;;;;;;5070566;28;19915;-86
2023/05/12 00:36:26;;;;;;;;;;;13.20;99.90;;;;;;5072678;28;19904;-86
2023/05/12 00:38:53;;;;;;;;;;;13.10;99.90;;;;;;5072117;28;20122;-86
2023/05/12 00:41:18;;;;;;;;;;;13.10;99.90;;;;;;5073040;28;19970;-86
2023/05/12 00:43:44;;;;;;;;;;;13.10;99.90;;;;;;5071191;28;20368;-87
2023/05/12 00:46:10;;;;;;;;;;;13.00;99.90;;;;;;5069823;28;20364;-86
2023/05/12 00:48:36;;;;;;;;;;;13.00;99.90;;;;;;5070312;28;19995;-85
2023/05/12 00:51:02;;;;;;;;;;;12.90;99.90;;;;;;5071855;28;19904;-87
2023/05/12 00:53:28;;;;;;;;;;;12.90;99.90;;;;;;5072291;28;19999;-88
2023/05/12 00:55:54;;;;;;;;;;;12.90;99.90;;;;;;5072204;28;20414;-85
2023/05/12 00:58:20;;;;;;;;;;;12.80;99.90;;;;;;5070356;28;19908;-85
2023/05/12 01:00:45;;;;;;;;;;;12.80;99.90;;;;;;5070824;28;20082;-86
2023/05/12 01:03:11;;;;;;;;;;;12.80;99.90;;;;;;5071740;28;19940;-87
2023/05/12 01:05:51;;;;;;;;;;;12.70;99.90;;;;;;5073425;28;19904;-86
2023/05/12 01:08:18;;;;;;;;;;;12.70;99.90;;;;;;5072013;28;19926;-85
2023/05/12 01:10:44;;;;;;;;;;;12.60;99.90;;;;;;5072346;28;19995;-87
2023/05/12 01:13:10;;;;;;;;;;;12.60;99.90;;;;;;5072271;28;20324;-88
2023/05/12 01:15:36;;;;;;;;;;;12.60;99.90;;;;;;5072002;28;19911;-87
2023/05/12 01:18:04;;;;;;;;;;;12.60;99.90;;;;;;5072009;28;19911;-87
2023/05/12 01:20:30;;;;;;;;;;;12.60;99.90;;;;;;5071707;28;19904;-85
2023/05/12 01:22:57;;;;;;;;;;;12.60;99.90;;;;;;5071840;28;19905;-86
2023/05/12 01:25:23;;;;;;;;;;;12.50;99.90;;;;;;5071768;28;19916;-88
2023/05/12 01:27:49;;;;;;;;;;;12.50;99.90;;;;;;5071161;28;19908;-87
2023/05/12 01:30:15;;;;;;;;;;;12.60;99.90;;;;;;5071694;28;20003;-86
2023/05/12 01:32:41;;;;;;;;;;;12.60;99.90;;;;;;5073604;28;19912;-87
2023/05/12 01:35:07;;;;;;;;;;;12.60;99.90;;;;;;5073366;28;19904;-85
2023/05/12 01:37:32;;;;;;;;;;;12.60;99.90;;;;;;5072452;28;20286;-87
2023/05/12 01:39:58;;;;;;;;;;;12.60;99.90;;;;;;5071780;28;19905;-87
2023/05/12 01:42:23;;;;;;;;;;;12.50;99.90;;;;;;5071906;28;20367;-86
2023/05/12 01:44:49;;;;;;;;;;;12.50;99.90;;;;;;5073030;28;19918;-86
2023/05/12 01:47:15;;;;;;;;;;;12.50;99.90;;;;;;5072350;28;20497;-87
2023/05/12 01:49:40;;;;;;;;;;;12.50;99.90;;;;;;5072417;28;19940;-87
2023/05/12 01:52:06;;;;;;;;;;;12.50;99.90;;;;;;5073353;28;19999;-87
2023/05/12 01:54:31;;;;;;;;;;;12.50;99.90;;;;;;5072314;28;19904;-88
2023/05/12 01:56:57;;;;;;;;;;;12.50;99.90;;;;;;5072212;28;19904;-87
2023/05/12 01:59:22;;;;;;;;;;;12.50;99.90;;;;;;5072458;28;19935;-87
2023/05/12 02:01:48;;;;;;;;;;;12.50;99.90;;;;;;5070482;28;19904;-87
2023/05/12 02:04:13;;;;;;;;;;;12.40;99.90;;;;;;5071783;28;20380;-88
2023/05/12 02:06:39;;;;;;;;;;;12.50;99.90;;;;;;5071846;28;20288;-88
2023/05/12 02:09:04;;;;;;;;;;;12.50;99.90;;;;;;5071750;28;20376;-88
2023/05/12 02:11:30;;;;;;;;;;;12.50;99.90;;;;;;5072287;28;19908;-89
2023/05/12 02:13:55;;;;;;;;;;;12.40;99.90;;;;;;5069413;28;20443;-88
2023/05/12 02:16:21;;;;;;;;;;;12.40;99.90;;;;;;5071814;28;19904;-88
2023/05/12 02:18:47;;;;;;;;;;;12.40;99.90;;;;;;5071831;28;19999;-89
2023/05/12 02:21:12;;;;;;;;;;;12.40;99.90;;;;;;5072893;28;20369;-88
2023/05/12 02:23:38;;;;;;;;;;;12.40;99.90;;;;;;5075220;28;19908;-88
2023/05/12 02:26:03;;;;;;;;;;;12.40;99.90;;;;;;5077130;28;19915;-88
2023/05/12 02:28:29;;;;;;;;;;;12.40;99.90;;;;;;5088191;28;19905;-87
2023/05/12 02:30:55;;;;;;;;;;;12.40;99.90;;;;;;5091862;28;19935;-87
2023/05/12 02:33:21;;;;;;;;;;;12.40;99.90;;;;;;5075929;28;20444;-89
2023/05/12 02:35:47;;;;;;;;;;;12.40;99.90;;;;;;5075225;28;19905;-86
2023/05/12 02:38:13;;;;;;;;;;;12.40;99.90;;;;;;5074995;28;20057;-86
2023/05/12 02:40:38;;;;;;;;;;;12.40;99.90;;;;;;5074284;28;20049;-84
2023/05/12 02:43:04;;;;;;;;;;;12.40;99.90;;;;;;5075589;28;19939;-84
2023/05/12 02:45:29;;;;;;;;;;;12.40;99.90;;;;;;5074384;28;19908;-86
2023/05/12 02:47:55;;;;;;;;;;;12.40;99.90;;;;;;5074297;28;19911;-87
2023/05/12 02:50:21;;;;;;;;;;;12.40;99.90;;;;;;5074685;28;19904;-86
2023/05/12 02:52:46;;;;;;;;;;;12.40;99.90;;;;;;5074566;28;19909;-87
2023/05/12 02:55:12;;;;;;;;;;;12.40;99.90;;;;;;5074657;28;19947;-87
2023/05/12 02:57:37;;;;;;;;;;;12.40;99.90;;;;;;5074444;28;19904;-87
2023/05/12 03:00:06;;;;;;;;;;;12.40;99.90;;;;;;5073592;28;20266;-87
2023/05/12 03:02:35;;;;;;;;;;;12.40;99.90;;;;;;5073906;28;19911;-87
2023/05/12 03:05:01;;;;;;;;;;;12.40;99.90;;;;;;5073530;28;19919;-84
2023/05/12 03:07:27;;;;;;;;;;;12.40;99.90;;;;;;5071589;28;19908;-84
2023/05/12 03:09:53;;;;;;;;;;;12.40;99.90;;;;;;5070748;28;20380;-85
2023/05/12 03:12:18;;;;;;;;;;;12.50;99.90;;;;;;5073239;28;19904;-85
2023/05/12 03:14:44;;;;;;;;;;;12.50;99.90;;;;;;5074028;28;19912;-87
2023/05/12 03:17:09;;;;;;;;;;;12.50;99.90;;;;;;5073274;28;19928;-86
2023/05/12 03:19:35;;;;;;;;;;;12.50;99.90;;;;;;5073121;28;19905;-85
2023/05/12 03:22:02;;;;;;;;;;;12.50;99.90;;;;;;5074077;28;19904;-85
2023/05/12 03:24:27;;;;;;;;;;;12.50;99.90;;;;;;5073465;28;19916;-90
2023/05/12 03:26:53;;;;;;;;;;;12.50;99.90;;;;;;5073590;28;19908;-86
2023/05/12 03:29:19;;;;;;;;;;;12.50;99.90;;;;;;5072634;28;19916;-86
2023/05/12 03:31:45;;;;;;;;;;;12.50;99.90;;;;;;5073444;28;20160;-86
2023/05/12 03:34:10;;;;;;;;;;;12.50;99.90;;;;;;5072206;28;19908;-84
2023/05/12 03:36:36;;;;;;;;;;;12.50;99.90;;;;;;5072573;28;19911;-86
2023/05/12 03:39:02;;;;;;;;;;;12.50;99.90;;;;;;5073838;28;19926;-87
2023/05/12 03:41:27;;;;;;;;;;;12.50;99.90;;;;;;5071388;28;19940;-84
2023/05/12 03:43:53;;;;;;;;;;;12.60;99.90;;;;;;5073433;28;19920;-87
2023/05/12 03:46:18;;;;;;;;;;;12.50;99.90;;;;;;5073799;28;20276;-89
2023/05/12 03:48:44;;;;;;;;;;;12.60;99.90;;;;;;5073615;28;19954;-88
2023/05/12 03:51:09;;;;;;;;;;;12.60;99.90;;;;;;5072616;28;19926;-89
2023/05/12 03:53:35;;;;;;;;;;;12.50;99.90;;;;;;5073034;28;19909;-88
2023/05/12 03:56:04;;;;;;;;;;;12.60;99.90;;;;;;5072099;28;19904;-88
2023/05/12 03:58:29;;;;;;;;;;;12.60;99.90;;;;;;5073007;28;19905;-88
2023/05/12 04:00:55;;;;;;;;;;;12.60;99.90;;;;;;5073148;28;19911;-88
2023/05/12 04:03:21;;;;;;;;;;;12.70;99.90;;;;;;5073541;28;19908;-88
2023/05/12 04:05:46;;;;;;;;;;;12.70;99.90;;;;;;5073540;28;19966;-88
2023/05/12 04:08:12;;;;;;;;;;;12.70;99.90;;;;;;5072176;28;19915;-86
2023/05/12 04:10:38;;;;;;;;;;;12.70;99.90;;;;;;5072263;28;19934;-89
2023/05/12 04:13:04;;;;;;;;;;;12.70;99.90;;;;;;5072987;28;19904;-88
2023/05/12 04:15:30;;;;;;;;;;;12.70;99.90;;;;;;5072902;28;19911;-88
2023/05/12 04:17:55;;;;;;;;;;;12.70;99.90;;;;;;5072836;28;19927;-87
2023/05/12 04:20:21;;;;;;;;;;;12.80;99.90;;;;;;5072791;28;19911;-88
2023/05/12 04:22:47;;;;;;;;;;;12.70;99.90;;;;;;5071274;28;19915;-88
2023/05/12 04:25:12;;;;;;;;;;;12.70;99.90;;;;;;5071894;28;19920;-88
2023/05/12 04:27:38;;;;;;;;;;;12.80;99.90;;;;;;5072417;28;19909;-87
2023/05/12 04:30:04;;;;;;;;;;;12.80;99.90;;;;;;5072587;28;19947;-87
2023/05/12 04:32:29;;;;;;;;;;;12.80;99.90;;;;;;5071187;28;19905;-88
2023/05/12 04:34:55;;;;;;;;;;;12.80;99.90;;;;;;5072885;28;19912;-89
2023/05/12 04:37:21;;;;;;;;;;;12.90;99.90;;;;;;5072810;28;19912;-88
2023/05/12 04:39:47;;;;;;;;;;;12.80;99.90;;;;;;5072803;28;19904;-88
2023/05/12 04:42:12;;;;;;;;;;;12.90;99.90;;;;;;5071802;28;19908;-87
2023/05/12 04:44:38;;;;;;;;;;;13.00;99.90;;;;;;5070114;28;19966;-85
2023/05/12 04:47:04;;;;;;;;;;;13.00;99.90;;;;;;5070950;28;20011;-87
2023/05/12 04:49:29;;;;;;;;;;;13.10;99.90;;;;;;5070097;28;20361;-87
2023/05/12 04:51:55;;;;;;;;;;;13.10;99.90;;;;;;5072442;28;19905;-89
2023/05/12 04:54:20;;;;;;;;;;;13.20;99.90;;;;;;5071137;28;19905;-87
2023/05/12 04:56:46;;;;;;;;;;;13.30;99.90;;;;;;5071210;28;20422;-88
2023/05/12 04:59:14;;;;;;;;;;;13.40;99.90;;;;;;5072439;28;19905;-87
2023/05/12 05:01:40;;;;;;;;;;;13.40;99.90;;;;;;5072262;28;19954;-87
2023/05/12 05:04:06;;;;;;;;;;;13.50;99.90;;;;;;5071047;28;19912;-87
2023/05/12 05:06:32;;;;;;;;;;;13.60;99.90;;;;;;5069981;28;19911;-88
2023/05/12 05:08:57;;;;;;;;;;;13.60;99.90;;;;;;5069730;28;19908;-87
2023/05/12 05:11:23;;;;;;;;;;;13.60;99.90;;;;;;5070791;28;19998;-85
2023/05/12 05:13:48;;;;;;;;;;;13.60;99.90;;;;;;5071462;28;20361;-86
2023/05/12 05:16:14;;;;;;;;;;;13.60;99.90;;;;;;5071099;28;19911;-86
2023/05/12 05:18:45;;;;;;;;;;;13.60;99.90;;;;;;5071198;28;19908;-84
2023/05/12 05:21:13;;;;;;;;;;;13.70;99.90;;;;;;5070169;28;19919;-85
2023/05/12 05:23:40;;;;;;;;;;;13.70;99.90;;;;;;5072220;28;19924;-87
2023/05/12 05:26:06;;;;;;;;;;;13.70;99.90;;;;;;5086345;28;19939;-85
2023/05/12 05:28:32;;;;;;;;;;;13.80;99.90;;;;;;5089024;28;19892;-85
2023/05/12 05:30:57;;;;;;;;;;;13.90;99.90;;;;;;5078340;28;19916;-88
2023/05/12 05:33:27;;;;;;;;;;;14.00;99.90;;;;;;5070758;28;20007;-86
2023/05/12 05:35:54;;;;;;;;;;;14.00;99.90;;;;;;5069365;28;19999;-86
2023/05/12 05:38:20;;;;;;;;;;;14.10;99.90;;;;;;5071130;28;20388;-85
2023/05/12 05:40:45;;;;;;;;;;;14.10;99.90;;;;;;5070971;28;19930;-86
2023/05/12 05:43:11;;;;;;;;;;;14.10;99.90;;;;;;5071030;28;19905;-87
2023/05/12 05:45:36;;;;;;;;;;;14.20;99.50;;;;;;5071852;28;19914;-87
2023/05/12 05:48:02;;;;;;;;;;;14.10;99.90;;;;;;5069391;28;19981;-86
2023/05/12 05:50:27;;;;;;;;;;;14.30;99.10;;;;;;5071009;28;19905;-86
2023/05/12 05:52:54;;;;;;;;;;;14.40;99.00;;;;;;5071290;28;19908;-87
2023/05/12 05:55:20;;;;;;;;;;;14.50;98.10;;;;;;5070416;28;19908;-88
2023/05/12 05:57:46;;;;;;;;;;;14.60;96.40;;;;;;5073822;28;19911;-86
2023/05/12 06:00:13;;;;;;;;;;;14.70;96.00;;;;;;5074192;28;19904;-85
2023/05/12 06:02:39;;;;;;;;;;;14.70;94.50;;;;;;5074016;28;19908;-86
2023/05/12 06:05:05;;;;;;;;;;;14.70;94.00;;;;;;5072577;28;19916;-85
2023/05/12 06:07:31;;;;;;;;;;;14.80;92.90;;;;;;5072372;28;19905;-87
2023/05/12 06:09:57;;;;;;;;;;;14.70;91.60;;;;;;5073183;28;19911;-84
2023/05/12 06:12:22;;;;;;;;;;;14.80;89.60;;;;;;5072571;28;19934;-86
2023/05/12 06:14:48;;;;;;;;;;;14.70;89.20;;;;;;5073091;28;19947;-86
2023/05/12 06:17:13;;;;;;;;;;;14.60;89.40;;;;;;5074186;28;19965;-88
2023/05/12 06:19:39;;;;;;;;;;;14.60;89.40;;;;;;5072979;28;19923;-87
2023/05/12 06:22:04;;;;;;;;;;;14.60;88.90;;;;;;5073522;28;20411;-86
2023/05/12 06:24:30;;;;;;;;;;;14.50;90.10;;;;;;5072595;28;20499;-86
2023/05/12 06:26:55;;;;;;;;;;;14.40;89.60;;;;;;5073094;28;19913;-87
2023/05/12 06:29:21;;;;;;;;;;;14.40;88.10;;;;;;5073617;28;20281;-86
2023/05/12 06:31:47;;;;;;;;;;;14.40;89.40;;;;;;5073062;28;19904;-86
2023/05/12 06:34:12;;;;;;;;;;;14.20;89.80;;;;;;5072928;28;20400;-86
2023/05/12 06:36:38;;;;;;;;;;;14.20;88.80;;;;;;5072342;28;20347;-85
2023/05/12 06:39:04;;;;;;;;;;;14.20;86.90;;;;;;5072557;28;19908;-88
2023/05/12 06:41:30;;;;;;;;;;;14.10;86.10;;;;;;5072681;28;19908;-87
2023/05/12 06:43:55;;;;;;;;;;;14.00;85.40;;;;;;5073595;28;19908;-87
2023/05/12 06:46:21;;;;;;;;;;;14.00;86.50;;;;;;5073619;28;19919;-87
2023/05/12 06:48:47;;;;;;;;;;;14.10;83.80;;;;;;5073301;28;19908;-87
2023/05/12 06:51:13;;;;;;;;;;;14.10;81.60;;;;;;5072797;28;19958;-86
2023/05/12 06:53:41;;;;;;;;;;;14.20;80.50;;;;;;5074017;28;20007;-87
2023/05/12 06:56:07;;;;;;;;;;;14.10;81.50;;;;;;5072342;28;20389;-87
2023/05/12 06:58:33;;;;;;;;;;;14.00;80.50;;;;;;5073167;28;19988;-87
2023/05/12 07:00:58;;;;;;;;;;;14.20;80.40;;;;;;5072333;28;19908;-87
2023/05/12 07:03:24;;;;;;;;;;;14.10;80.10;;;;;;5072177;28;19908;-86
2023/05/12 07:05:50;;;;;;;;;;;14.10;79.50;;;;;;5071948;28;19915;-86
2023/05/12 07:08:16;;;;;;;;;;;14.10;80.00;;;;;;5072326;28;19923;-87
2023/05/12 07:10:41;;;;;;;;;;;14.00;79.30;;;;;;5072593;28;19909;-88
2023/05/12 07:13:07;;;;;;;;;;;14.10;77.80;;;;;;5072340;28;19912;-87
2023/05/12 07:15:33;;;;;;;;;;;14.00;78.50;;;;;;5072732;28;19912;-87
2023/05/12 07:17:58;;;;;;;;;;;14.10;77.40;;;;;;5072496;28;19975;-86
2023/05/12 07:20:24;;;;;;;;;;;14.10;78.00;;;;;;5073007;28;19908;-86
2023/05/12 07:22:51;;;;;;;;;;;14.20;77.80;;;;;;5072524;28;19911;-86
2023/05/12 07:25:17;;;;;;;;;;;14.40;77.70;;;;;;5071649;28;19971;-88
2023/05/12 07:27:43;;;;;;;;;;;14.60;78.20;;;;;;5071938;28;19909;-86
2023/05/12 07:30:09;;;;;;;;;;;14.80;76.60;;;;;;5072391;28;19911;-86
2023/05/12 07:32:35;;;;;;;;;;;14.90;75.90;;;;;;5071534;28;19926;-87
2023/05/12 07:35:00;;;;;;;;;;;15.20;75.40;;;;;;5071609;28;19940;-87
2023/05/12 07:37:26;;;;;;;;;;;15.30;72.30;;;;;;5071472;28;19963;-89
2023/05/12 07:39:51;;;;;;;;;;;15.50;72.30;;;;;;5071377;28;19912;-86
2023/05/12 07:42:17;;;;;;;;;;;15.50;72.40;;;;;;5071370;28;19908;-86
2023/05/12 07:44:43;;;;;;;;;;;15.50;72.30;;;;;;5070803;28;19925;-86
2023/05/12 07:47:08;;;;;;;;;;;15.70;72.60;;;;;;5071906;28;19908;-87
2023/05/12 07:49:34;;;;;;;;;;;15.60;72.10;;;;;;5071417;28;19914;-89
2023/05/12 07:51:59;;;;;;;;;;;15.80;71.40;;;;;;5071157;28;19963;-88
2023/05/12 07:54:25;;;;;;;;;;;15.90;70.80;;;;;;5071527;28;19908;-89
2023/05/12 07:56:50;;;;;;;;;;;16.10;72.00;;;;;;5070736;28;20430;-86
2023/05/12 07:59:16;;;;;;;;;;;16.20;68.90;;;;;;5071860;28;19911;-86
2023/05/12 08:01:42;;;;;;;;;;;16.20;69.90;;;;;;5071265;28;19904;-89
2023/05/12 08:04:07;;;;;;;;;;;16.30;69.90;;;;;;5070788;28;20341;-88
2023/05/12 08:06:33;;;;;;;;;;;16.30;69.00;;;;;;5071386;28;19931;-88
2023/05/12 08:08:59;;;;;;;;;;;16.30;68.50;;;;;;5071673;28;19963;-88
2023/05/12 08:11:24;;;;;;;;;;;16.00;69.20;;;;;;5071794;28;20008;-88
2023/05/12 08:13:50;;;;;;;;;;;15.80;71.10;;;;;;5072622;28;19911;-87
2023/05/12 08:16:16;;;;;;;;;;;15.90;70.10;;;;;;5072326;28;20421;-87
2023/05/12 08:18:41;;;;;;;;;;;15.80;69.60;;;;;;5071906;28;19912;-89
2023/05/12 08:21:07;;;;;;;;;;;15.60;70.10;;;;;;5072719;28;20353;-88
2023/05/12 08:23:33;;;;;;;;;;;15.50;72.00;;;;;;5093037;28;19893;-87
2023/05/12 08:25:58;;;;;;;;;;;15.60;71.80;;;;;;5090773;28;19919;-88
2023/05/12 08:28:24;;;;;;;;;;;15.50;72.30;;;;;;5073121;28;19911;-87
2023/05/12 08:30:49;;;;;;;;;;;15.40;73.20;;;;;;5073443;28;19905;-88
2023/05/12 08:33:15;;;;;;;;;;;15.50;75.20;;;;;;5070915;28;20292;-90
2023/05/12 08:35:40;;;;;;;;;;;15.50;75.00;;;;;;5071043;28;20407;-87
2023/05/12 08:38:06;;;;;;;;;;;15.50;73.90;;;;;;5070684;28;19904;-88
2023/05/12 08:40:36;;;;;;;;;;;15.50;75.20;;;;;;5072711;28;19905;-89
2023/05/12 08:43:05;;;;;;;;;;;15.60;77.50;;;;;;5070294;28;19908;-89
2023/05/12 08:45:30;;;;;;;;;;;15.60;76.20;;;;;;5070599;28;19919;-88
2023/05/12 08:47:57;;;;;;;;;;;15.70;75.90;;;;;;5070754;28;20304;-89
2023/05/12 08:50:23;;;;;;;;;;;15.70;77.00;;;;;;5070323;28;20027;-90
2023/05/12 08:52:50;;;;;;;;;;;15.50;80.00;;;;;;5072182;28;20289;-87
2023/05/12 08:55:16;;;;;;;;;;;15.40;80.50;;;;;;5070265;28;20382;-88
2023/05/12 08:57:47;;;;;;;;;;;15.30;82.00;;;;;;5070181;28;20402;-89
2023/05/12 09:00:13;;;;;;;;;;;15.20;82.10;;;;;;5071762;28;19928;-88
2023/05/12 09:02:39;;;;;;;;;;;15.10;88.10;;;;;;5070401;28;19974;-88
2023/05/12 09:05:05;;;;;;;;;;;14.90;88.80;;;;;;5070428;28;19920;-86
2023/05/12 09:07:31;;;;;;;;;;;14.90;93.10;;;;;;5070606;28;19904;-87
2023/05/12 09:09:57;;;;;;;;;;;14.80;96.60;;;;;;5072348;28;19904;-88
2023/05/12 09:12:24;;;;;;;;;;;14.80;99.90;;;;;;5070706;28;19950;-87
2023/05/12 09:15:02;;;;;;;;;;;14.90;99.90;;;;;;5071201;28;19908;-88
2023/05/12 09:17:28;;;;;;;;;;;15.00;99.90;;;;;;5070034;28;19905;-86
2023/05/12 09:19:53;;;;;;;;;;;14.80;99.90;;;;;;5071603;28;20021;-87
2023/05/12 09:22:26;;;;;;;;;;;14.70;99.90;;;;;;5070507;28;19904;-88
2023/05/12 09:24:52;;;;;;;;;;;14.60;99.90;;;;;;5070339;28;19920;-88
2023/05/12 09:27:22;;;;;;;;;;;14.70;99.90;;;;;;5071913;28;19904;-88
2023/05/12 09:29:48;;;;;;;;;;;14.80;99.90;;;;;;5070103;28;19940;-88
2023/05/12 09:32:14;;;;;;;;;;;14.60;99.90;;;;;;5074337;28;19956;-88
2023/05/12 09:34:39;;;;;;;;;;;14.50;99.90;;;;;;5075036;28;19916;-88
2023/05/12 09:37:05;;;;;;;;;;;14.60;99.90;;;;;;5075872;28;20388;-89
2023/05/12 09:39:31;;;;;;;;;;;14.60;99.90;;;;;;5076240;28;19911;-88
2023/05/12 09:41:56;;;;;;;;;;;14.60;99.90;;;;;;5074560;28;19908;-87
2023/05/12 09:44:23;;;;;;;;;;;14.50;99.90;;;;;;5076169;28;19913;-89
2023/05/12 09:46:48;;;;;;;;;;;14.40;99.90;;;;;;5075973;28;20222;-88
2023/05/12 09:49:21;;;;;;;;;;;14.30;99.90;;;;;;5075690;28;20383;-88
2023/05/12 09:51:50;;;;;;;;;;;14.20;99.90;;;;;;5075855;28;20001;-88
2023/05/12 09:54:23;;;;;;;;;;;14.30;99.90;;;;;;5073848;28;19908;-88
2023/05/12 09:56:48;;;;;;;;;;;14.10;99.90;;;;;;5074036;28;19931;-85
2023/05/12 09:59:14;;;;;;;;;;;13.90;99.90;;;;;;5075547;28;20388;-88
2023/05/12 10:01:40;;;;;;;;;;;13.90;99.90;;;;;;5074311;28;19962;-86
2023/05/12 10:04:06;;;;;;;;;;;13.70;99.90;;;;;;5074146;28;19912;-89
2023/05/12 10:06:32;;;;;;;;;;;13.50;99.90;;;;;;5073362;28;19905;-87
2023/05/12 10:09:07;;;;;;;;;;;13.40;99.90;;;;;;5073383;28;19912;-88
2023/05/12 10:11:33;;;;;;;;;;;13.20;99.90;;;;;;5073742;28;19928;-88
2023/05/12 10:13:59;;;;;;;;;;;13.00;99.90;;;;;;5073192;28;20369;-87
2023/05/12 10:16:26;;;;;;;;;;;12.90;99.90;;;;;;5075416;28;20341;-89
2023/05/12 10:18:53;;;;;;;;;;;12.80;99.90;;;;;;5073598;28;19968;-89
2023/05/12 10:21:19;;;;;;;;;;;12.70;99.90;;;;;;5074087;28;19931;-88
2023/05/12 10:23:45;;;;;;;;;;;12.70;99.90;;;;;;5074625;28;19917;-89
2023/05/12 10:26:11;;;;;;;;;;;12.70;99.90;;;;;;5075361;28;19909;-88
2023/05/12 10:28:36;;;;;;;;;;;12.60;99.90;;;;;;5075066;28;19912;-88
2023/05/12 10:31:04;;;;;;;;;;;12.50;99.90;;;;;;5075315;28;20423;-89
2023/05/12 10:33:29;;;;;;;;;;;12.40;99.90;;;;;;5075393;28;19904;-90
2023/05/12 10:35:55;;;;;;;;;;;12.30;99.90;;;;;;5074107;28;20335;-89
2023/05/12 10:38:21;;;;;;;;;;;12.30;99.90;;;;;;5074852;28;19904;-90
2023/05/12 10:40:54;;;;;;;;;;;12.20;99.90;;;;;;5074765;28;20662;-91
2023/05/12 10:43:26;;;;;;;;;;;12.30;99.90;;;;;;5074478;28;19969;-90
2023/05/12 10:46:05;;;;;;;;;;;12.30;99.90;;;;;;5074990;28;20421;-92
2023/05/12 10:48:30;;;;;;;;;;;12.30;99.90;;;;;;5073976;28;19908;-90
2023/05/12 10:50:56;;;;;;;;;;;12.40;99.90;;;;;;5077582;28;19905;-91
2023/05/12 10:53:31;;;;;;;;;;;12.40;99.90;;;;;;5075045;28;19904;-90
2023/05/12 10:55:57;;;;;;;;;;;12.40;99.90;;;;;;5075092;28;20288;-91
2023/05/12 10:58:22;;;;;;;;;;;12.40;99.90;;;;;;5074597;28;19909;-92
2023/05/12 11:00:49;;;;;;;;;;;12.40;99.90;;;;;;5074361;28;19904;-91
2023/05/12 11:03:16;;;;;;;;;;;12.40;99.90;;;;;;5073008;28;19912;-90
2023/05/12 11:05:42;;;;;;;;;;;12.40;99.90;;;;;;5073695;28;19912;-91
2023/05/12 11:08:08;;;;;;;;;;;12.30;99.90;;;;;;5075019;28;19904;-91
2023/05/12 11:10:33;;;;;;;;;;;12.40;99.90;;;;;;5074930;28;19908;-92
2023/05/12 11:12:59;;;;;;;;;;;12.40;99.90;;;;;;5075552;28;20444;-91
2023/05/12 11:15:26;;;;;;;;;;;12.60;99.90;;;;;;5078435;28;19908;-90
2023/05/12 11:17:51;;;;;;;;;;;12.60;99.90;;;;;;5079236;28;19888;-91
2023/05/12 11:20:21;;;;;;;;;;;12.70;99.90;;;;;;5096371;28;19911;-91
2023/05/12 11:22:47;;;;;;;;;;;12.80;99.90;;;;;;5086465;28;19908;-90
2023/05/12 11:25:13;;;;;;;;;;;12.90;99.90;;;;;;5075204;28;20453;-91
2023/05/12 11:27:44;;;;;;;;;;;12.90;99.90;;;;;;5074587;28;19995;-90
2023/05/12 11:30:10;;;;;;;;;;;12.90;99.90;;;;;;5074349;28;19911;-90
2023/05/12 11:32:35;;;;;;;;;;;12.90;99.90;;;;;;5073998;28;20413;-90
2023/05/12 11:35:27;;;;;;;;;;;12.80;99.90;;;;;;5073600;28;19904;-90
2023/05/12 11:37:53;;;;;;;;;;;12.70;99.90;;;;;;5071666;28;20394;-89
2023/05/12 11:40:19;;;;;;;;;;;12.70;99.90;;;;;;5072601;28;19908;-90
2023/05/12 11:42:50;;;;;;;;;;;12.80;99.90;;;;;;5072164;28;19909;-90
2023/05/12 11:45:27;;;;;;;;;;;12.80;99.90;;;;;;5071625;28;19919;-89
2023/05/12 11:48:03;;;;;;;;;;;12.70;99.90;;;;;;5071667;28;20050;-89
2023/05/12 11:50:29;;;;;;;;;;;12.60;99.90;;;;;;5073743;28;20368;-90
2023/05/12 11:52:55;;;;;;;;;;;12.50;99.90;;;;;;5074029;28;19911;-91
2023/05/12 11:55:22;;;;;;;;;;;12.50;99.90;;;;;;5072608;28;19911;-90
2023/05/12 11:57:58;;;;;;;;;;;12.40;99.90;;;;;;5073491;28;19940;-91
2023/05/12 12:00:28;;;;;;;;;;;12.40;99.90;;;;;;5073725;28;19983;-90
2023/05/12 12:03:03;;;;;;;;;;;12.50;99.90;;;;;;5072530;28;19940;-91
2023/05/12 12:05:29;;;;;;;;;;;12.50;99.90;;;;;;5073369;28;19965;-90
2023/05/12 12:08:03;;;;;;;;;;;12.50;99.90;;;;;;5073330;28;20270;-90
2023/05/12 12:10:28;;;;;;;;;;;12.50;99.90;;;;;;5073100;28;20495;-91
2023/05/12 12:12:54;;;;;;;;;;;12.40;99.90;;;;;;5073040;28;19931;-89
2023/05/12 12:15:20;;;;;;;;;;;12.50;99.90;;;;;;5073317;28;19908;-89
2023/05/12 12:17:45;;;;;;;;;;;12.40;99.90;;;;;;5072750;28;19915;-90
2023/05/12 12:20:11;;;;;;;;;;;12.40;99.90;;;;;;5071664;28;19914;-91
2023/05/12 12:22:36;;;;;;;;;;;12.50;99.90;;;;;;5072023;28;19916;-90
2023/05/12 12:25:02;;;;;;;;;;;12.50;99.90;;;;;;5072297;28;20292;-90
2023/05/12 12:27:28;;;;;;;;;;;12.50;99.90;;;;;;5072198;28;19904;-91
2023/05/12 12:29:53;;;;;;;;;;;12.40;99.90;;;;;;5073081;28;19975;-91
2023/05/12 12:32:19;;;;;;;;;;;12.50;99.90;;;;;;5071227;28;19915;-89
2023/05/12 12:34:45;;;;;;;;;;;12.60;99.90;;;;;;5072603;28;20419;-90
2023/05/12 12:37:10;;;;;;;;;;;12.60;99.90;;;;;;5072099;28;19981;-90
2023/05/12 12:39:36;;;;;;;;;;;12.80;99.90;;;;;;5071808;28;19905;-90
2023/05/12 12:42:02;;;;;;;;;;;12.80;99.90;;;;;;5070597;28;19904;-89
2023/05/12 12:44:27;;;;;;;;;;;12.90;99.90;;;;;;5070358;28;19908;-89
2023/05/12 12:46:53;;;;;;;;;;;13.00;99.90;;;;;;5071554;28;19904;-90
2023/05/12 12:49:19;;;;;;;;;;;13.00;99.90;;;;;;5072553;28;19905;-90
2023/05/12 12:51:44;;;;;;;;;;;13.10;99.90;;;;;;5072018;28;19904;-89
2023/05/12 12:54:10;;;;;;;;;;;13.00;99.90;;;;;;5072238;28;20526;-91
2023/05/12 12:56:35;;;;;;;;;;;13.10;99.90;;;;;;5071312;28;19904;-89
2023/05/12 12:59:01;;;;;;;;;;;13.00;99.90;;;;;;5071945;28;20296;-89
2023/05/12 13:01:27;;;;;;;;;;;13.00;99.90;;;;;;5072256;28;19914;-90
2023/05/12 13:03:52;;;;;;;;;;;12.90;99.90;;;;;;5071563;28;19912;-90
2023/05/12 13:06:18;;;;;;;;;;;12.90;99.90;;;;;;5071272;28;19916;-90
2023/05/12 13:08:44;;;;;;;;;;;12.90;99.90;;;;;;5071308;28;19912;-87
2023/05/12 13:11:09;;;;;;;;;;;12.90;99.90;;;;;;5071032;28;19908;-88
2023/05/12 13:13:35;;;;;;;;;;;12.90;99.90;;;;;;5071405;28;19916;-88
2023/05/12 13:16:01;;;;;;;;;;;12.90;99.90;;;;;;5072848;28;19935;-90
2023/05/12 13:18:26;;;;;;;;;;;13.00;99.90;;;;;;5071115;28;20007;-89
2023/05/12 13:20:53;;;;;;;;;;;13.10;99.90;;;;;;5070272;28;20513;-88
2023/05/12 13:23:19;;;;;;;;;;;13.00;99.90;;;;;;5071884;28;19904;-88
2023/05/12 13:25:45;;;;;;;;;;;13.10;99.90;;;;;;5071905;28;20144;-89
2023/05/12 13:28:11;;;;;;;;;;;13.20;99.90;;;;;;5071056;28;20300;-89
2023/05/12 13:30:36;;;;;;;;;;;13.20;99.90;;;;;;5071694;28;19991;-89
2023/05/12 13:33:02;;;;;;;;;;;13.20;99.90;;;;;;5070269;28;19904;-89
2023/05/12 13:35:28;;;;;;;;;;;13.20;99.90;;;;;;5070002;28;20026;-88
2023/05/12 13:37:55;;;;;;;;;;;13.20;99.90;;;;;;5072028;28;20007;-88
2023/05/12 13:40:21;;;;;;;;;;;13.30;99.90;;;;;;5071941;28;19905;-87
2023/05/12 13:42:46;;;;;;;;;;;13.20;99.90;;;;;;5070105;28;20254;-88
2023/05/12 13:45:12;;;;;;;;;;;13.20;99.90;;;;;;5070148;28;19912;-89
2023/05/12 13:47:37;;;;;;;;;;;13.30;99.90;;;;;;5070914;28;19911;-86
2023/05/12 13:50:03;;;;;;;;;;;13.30;99.90;;;;;;5070090;28;19967;-87
2023/05/12 13:52:29;;;;;;;;;;;13.50;99.90;;;;;;5070590;28;19915;-87
2023/05/12 13:54:54;;;;;;;;;;;13.50;99.90;;;;;;5071109;28;19904;-88
2023/05/12 13:57:20;;;;;;;;;;;13.50;99.90;;;;;;5070789;28;19904;-90
2023/05/12 13:59:45;;;;;;;;;;;13.50;99.90;;;;;;5072253;28;19916;-89
2023/05/12 14:02:12;;;;;;;;;;;13.60;99.90;;;;;;5071637;28;20245;-88
2023/05/12 14:04:38;;;;;;;;;;;13.60;99.90;;;;;;5069970;28;19912;-88
2023/05/12 14:07:04;;;;;;;;;;;13.50;99.90;;;;;;5073214;28;19954;-88
2023/05/12 14:09:30;;;;;;;;;;;13.50;99.90;;;;;;5070348;28;19904;-87
2023/05/12 14:11:56;;;;;;;;;;;13.50;99.90;;;;;;5071506;28;19904;-88